Weather at El Encinal Heliport

Public forecast

Using degrees Celsius for public forecast. Weather courtesy of forecast.io.

Closest aviation weather report (METAR) to El Encinal Heliport

Report is more than 2 hours old.

Closest report is General Heriberto Jara International Airport, 66.7 nm (123.6 km) N. Retrieved 2022/01/24 04:44 UTC (5 hours ago):

MMVR 240444Z 36006KT 7SM FEW010 OVC020 21/18 A3007 RMK 60005 8/7//

Closest aviation forecast (TAF) to El Encinal Heliport

Closest forecast is General Heriberto Jara International Airport, 66.7 nm (123.6 km) N. Retrieved 2022/01/24 06:00 UTC (4 hours ago):

TAF MMVR 240427Z 2406/2506 34005KT P6SM -RA SCT010 SCT020 OVC030 TX23/2418Z TN17/2412Z FM241000 17010KT 3SM -DZ BR OVC015 TEMPO 2411/2415 1/2SM -DZ OVC010 FM241700 12005KT 4SM HZ BKN015 BKN070 BECMG 2421/2422 6SM HZ BKN030 BKN080 FM250300 12012KT P6SM BKN020